Paracuru, Brazil
Current Conditions -  °F | °C
As of 10:00 AM on Thursday 30 Oct 2014 (Local Time) from SBFZ Reporting Station
Scattered Clouds Scattered Clouds  
Wind Chill: 84°   Ceiling: Unl
Heat Index: 86°   Visibility: 6mi
Dew Point: 64°   Wind: 25mph
Humidity: 51%   Direction: 110°ESE
Pressure: 29.91"   Gusts: NA
Location:  3.41°S, 39.03°W
Report Text: SBFZ 301300Z 11022KT 9999 SCT025 29/18 Q1013
Loading
Personal Weather Stations






























Interactive Weather Map
Tropical Storm Tracking
New forecast layout! Learn more

10-Day Weather Forecast

Advertisements
Track Severe Weather on mobile